createdAt,value
2023-03-06T00:00:53.229Z,100799.09
2023-03-06T00:03:20.908Z,100790.53
2023-03-06T00:05:48.128Z,100793.16
2023-03-06T00:08:15.036Z,100791.38
2023-03-06T00:10:41.866Z,100781.94
2023-03-06T00:13:11.937Z,100786.53
2023-03-06T00:15:38.750Z,100779.09
2023-03-06T00:18:07.356Z,100775.06
2023-03-06T00:20:35.023Z,100775.25
2023-03-06T00:23:02.050Z,100779.97
2023-03-06T00:25:28.907Z,100770.72
2023-03-06T00:27:55.738Z,100771.00
2023-03-06T00:30:24.478Z,100774.63
2023-03-06T00:32:53.362Z,100772.31
2023-03-06T00:35:21.540Z,100768.28
2023-03-06T00:37:48.543Z,100773.19
2023-03-06T00:40:17.141Z,100767.41
2023-03-06T00:42:43.976Z,100763.25
2023-03-06T00:45:11.454Z,100769.34
2023-03-06T00:47:38.260Z,100763.38
2023-03-06T00:50:05.869Z,100753.16
2023-03-06T00:52:34.183Z,100756.91
2023-03-06T00:55:00.835Z,100747.50
2023-03-06T00:57:27.599Z,100744.22
2023-03-06T00:59:54.261Z,100741.84
2023-03-06T01:02:21.299Z,100735.25
2023-03-06T01:04:48.074Z,100740.66
2023-03-06T01:07:14.809Z,100730.41
2023-03-06T01:09:42.948Z,100737.59
2023-03-06T01:12:09.820Z,100738.75
2023-03-06T01:14:36.576Z,100738.88
2023-03-06T01:17:03.351Z,100727.16
2023-03-06T01:19:30.151Z,100726.59
2023-03-06T01:21:56.982Z,100721.34
2023-03-06T01:24:25.816Z,100709.16
2023-03-06T01:26:54.146Z,100697.00
2023-03-06T01:29:21.032Z,100693.38
2023-03-06T01:31:47.804Z,100680.53
2023-03-06T01:34:14.603Z,100686.75
2023-03-06T01:36:41.412Z,100695.75
2023-03-06T01:39:08.241Z,100694.28
2023-03-06T01:41:35.317Z,100699.53
2023-03-06T01:44:03.786Z,100694.88
2023-03-06T01:46:34.437Z,100690.44
2023-03-06T01:49:06.180Z,100688.59
2023-03-06T01:51:37.951Z,100691.41
2023-03-06T01:54:11.766Z,100686.28
2023-03-06T01:56:43.471Z,100676.72
2023-03-06T01:59:16.778Z,100676.44
2023-03-06T02:01:44.716Z,100672.31
2023-03-06T02:04:11.995Z,100674.09
2023-03-06T02:06:43.184Z,100673.28
2023-03-06T02:09:11.984Z,100677.69
2023-03-06T02:11:39.084Z,100675.06
2023-03-06T02:14:05.889Z,100673.41
2023-03-06T02:16:34.259Z,100673.59
2023-03-06T02:19:02.831Z,100673.59
2023-03-06T02:21:34.299Z,100678.16
2023-03-06T02:24:14.840Z,100675.53
2023-03-06T02:26:45.261Z,100669.44
2023-03-06T02:29:11.997Z,100670.41
2023-03-06T02:31:38.725Z,100667.78
2023-03-06T02:34:28.270Z,100667.91
2023-03-06T02:36:58.630Z,100662.78
2023-03-06T02:39:27.669Z,100667.25
2023-03-06T02:41:55.817Z,100660.47
2023-03-06T02:44:23.362Z,100659.78
2023-03-06T02:46:50.025Z,100656.19
2023-03-06T02:49:16.752Z,100656.19
2023-03-06T02:51:43.495Z,100644.69
2023-03-06T02:54:11.001Z,100648.97
2023-03-06T02:56:37.949Z,100643.03
2023-03-06T02:59:06.102Z,100644.00
2023-03-06T03:01:32.843Z,100638.88
2023-03-06T03:03:59.695Z,100632.78
2023-03-06T03:06:26.431Z,100624.91
2023-03-06T03:08:53.120Z,100623.28
2023-03-06T03:11:20.014Z,100614.56
2023-03-06T03:13:46.740Z,100613.41
2023-03-06T03:16:15.808Z,100619.38
2023-03-06T03:18:44.627Z,100615.22
2023-03-06T03:21:13.112Z,100605.53
2023-03-06T03:23:40.131Z,100607.34
2023-03-06T03:26:08.010Z,100605.53
2023-03-06T03:28:34.773Z,100596.81
2023-03-06T03:31:03.553Z,100591.41
2023-03-06T03:33:31.700Z,100592.56
2023-03-06T03:35:59.116Z,100586.28
2023-03-06T03:38:26.223Z,100579.25
2023-03-06T03:40:53.182Z,100580.75
2023-03-06T03:51:13.901Z,100569.03
2023-03-06T03:53:40.691Z,100576.91
2023-03-06T03:56:07.431Z,100565.03
2023-03-06T03:58:34.300Z,100557.16
2023-03-06T04:01:01.426Z,100563.38
2023-03-06T04:03:28.163Z,100561.56
2023-03-06T04:05:57.939Z,100557.00
2023-03-06T04:08:26.613Z,100557.84
2023-03-06T04:10:54.107Z,100551.59
2023-03-06T04:13:22.345Z,100548.00
2023-03-06T04:15:50.936Z,100547.16
2023-03-06T04:18:18.605Z,100544.41
2023-03-06T04:20:46.489Z,100535.00
2023-03-06T04:23:13.864Z,100535.00
2023-03-06T04:25:42.156Z,100536.94
2023-03-06T04:28:09.287Z,100529.06
2023-03-06T04:30:36.520Z,100537.75
2023-03-06T04:33:40.636Z,100539.44
2023-03-06T04:36:08.082Z,100533.34
2023-03-06T04:38:34.934Z,100533.47
2023-03-06T04:41:03.062Z,100531.53
2023-03-06T04:43:29.737Z,100530.72
2023-03-06T04:45:58.150Z,100531.69
2023-03-06T04:48:24.875Z,100526.28
2023-03-06T04:50:51.576Z,100520.06
2023-03-06T04:53:19.636Z,100527.94
2023-03-06T04:55:46.545Z,100521.84
2023-03-06T04:58:15.156Z,100520.06
2023-03-06T05:00:41.847Z,100517.28
2023-03-06T05:03:09.014Z,100519.91
2023-03-06T05:05:35.747Z,100514.66
2023-03-06T05:08:02.442Z,100517.94
2023-03-06T05:10:29.244Z,100515.31
2023-03-06T05:12:55.941Z,100512.53
2023-03-06T05:15:24.027Z,100515.31
2023-03-06T05:17:51.016Z,100507.59
2023-03-06T05:20:18.226Z,100505.78
2023-03-06T05:22:45.136Z,100495.94
2023-03-06T05:25:11.942Z,100490.81
2023-03-06T05:27:39.044Z,100490.66
2023-03-06T05:30:07.389Z,100485.28
2023-03-06T05:32:36.018Z,100485.13
2023-03-06T05:35:04.384Z,100481.53
2023-03-06T05:37:31.921Z,100484.16
2023-03-06T05:39:58.970Z,100478.72
2023-03-06T05:42:27.612Z,100481.34
2023-03-06T05:44:55.255Z,100477.75
2023-03-06T05:47:21.938Z,100474.97
2023-03-06T05:49:50.396Z,100472.34
2023-03-06T05:52:17.610Z,100474.97
2023-03-06T05:54:44.482Z,100473.19
2023-03-06T05:57:11.341Z,100474.00
2023-03-06T05:59:38.041Z,100475.81
2023-03-06T06:02:05.620Z,100470.53
2023-03-06T06:04:32.684Z,100485.34
2023-03-06T06:07:01.156Z,100476.63
2023-03-06T06:09:28.612Z,100477.47
2023-03-06T06:11:57.958Z,100476.34
2023-03-06T06:14:25.637Z,100475.50
2023-03-06T06:16:52.828Z,100468.59
2023-03-06T06:19:20.348Z,100469.25
2023-03-06T06:21:48.609Z,100466.63
2023-03-06T06:24:18.905Z,100469.25
2023-03-06T06:26:46.101Z,100465.66
2023-03-06T06:29:13.504Z,100472.56
2023-03-06T06:31:40.699Z,100467.31
2023-03-06T06:34:09.059Z,100465.66
2023-03-06T06:36:35.958Z,100466.63
2023-03-06T06:39:03.706Z,100472.72
2023-03-06T06:41:46.639Z,100465.81
2023-03-06T06:44:19.353Z,100475.34
2023-03-06T06:49:33.923Z,100476.03
2023-03-06T06:52:01.010Z,100480.31
2023-03-06T06:54:28.213Z,100477.53
2023-03-06T06:56:56.415Z,100469.50
2023-03-06T06:59:24.100Z,100474.59
2023-03-06T07:01:52.393Z,100473.59
2023-03-06T07:04:20.461Z,100478.88
2023-03-06T07:06:55.134Z,100479.56
2023-03-06T07:09:25.068Z,100481.34
2023-03-06T07:11:52.192Z,100477.75
2023-03-06T07:14:23.656Z,100481.22
2023-03-06T07:16:52.115Z,100483.53
2023-03-06T07:19:18.962Z,100483.38
2023-03-06T07:21:45.764Z,100485.03
2023-03-06T07:24:17.319Z,100488.34
2023-03-06T07:26:46.724Z,100481.09
2023-03-06T07:29:13.873Z,100486.38
2023-03-06T07:31:43.670Z,100493.81
2023-03-06T07:34:13.775Z,100499.75
2023-03-06T07:36:41.366Z,100495.16
2023-03-06T07:39:10.204Z,100497.63
2023-03-06T07:41:37.918Z,100495.84
2023-03-06T07:44:04.700Z,100499.16
2023-03-06T07:46:31.511Z,100501.78
2023-03-06T07:49:00.739Z,100500.50
2023-03-06T07:51:27.559Z,100495.06
2023-03-06T07:53:54.410Z,100501.81
2023-03-06T07:56:21.197Z,100496.41
2023-03-06T07:58:48.353Z,100500.56
2023-03-06T08:01:17.378Z,100503.69
2023-03-06T08:03:45.323Z,100500.75
2023-03-06T08:06:21.850Z,100505.56
2023-03-06T08:08:53.306Z,100508.72
2023-03-06T08:11:22.231Z,100504.94
2023-03-06T08:13:52.707Z,100503.81
2023-03-06T08:16:22.269Z,100505.16
2023-03-06T08:18:49.021Z,100499.72
2023-03-06T08:21:20.679Z,100508.97
2023-03-06T08:23:48.092Z,100502.56
2023-03-06T08:26:16.767Z,100501.44
2023-03-06T08:28:50.977Z,100499.16
2023-03-06T08:31:28.692Z,100501.47
2023-03-06T08:33:57.148Z,100503.78
2023-03-06T08:36:27.031Z,100507.09
2023-03-06T08:38:54.273Z,100509.28
2023-03-06T08:41:21.825Z,100511.44
2023-03-06T08:43:50.288Z,100515.41
2023-03-06T08:46:18.936Z,100514.13
2023-03-06T08:48:47.793Z,100518.06
2023-03-06T08:51:15.691Z,100519.44
2023-03-06T08:53:45.808Z,100524.22
2023-03-06T08:56:18.900Z,100519.78
2023-03-06T08:58:49.063Z,100515.81
2023-03-06T09:01:17.640Z,100520.94
2023-03-06T09:03:44.794Z,100512.06
2023-03-06T09:06:13.606Z,100514.22
2023-03-06T09:08:43.276Z,100509.59
2023-03-06T09:11:13.245Z,100512.09
2023-03-06T09:13:40.856Z,100510.44
2023-03-06T09:16:08.444Z,100508.47
2023-03-06T09:18:35.360Z,100509.31
2023-03-06T09:21:02.518Z,100502.38
2023-03-06T09:23:29.376Z,100507.50
2023-03-06T09:25:58.302Z,100510.78
2023-03-06T09:28:26.896Z,100501.75
2023-03-06T09:30:55.201Z,100501.25
2023-03-06T09:33:22.979Z,100506.06
2023-03-06T09:35:52.108Z,100499.81
2023-03-06T09:38:20.340Z,100506.53
2023-03-06T09:41:04.281Z,100503.25
2023-03-06T09:43:38.403Z,100501.44
2023-03-06T09:46:20.018Z,100504.06
2023-03-06T09:49:01.944Z,100500.81
2023-03-06T09:51:39.348Z,100497.84
2023-03-06T09:54:12.525Z,100505.09
2023-03-06T09:56:46.208Z,100500.00
2023-03-06T09:59:19.113Z,100506.50
2023-03-06T10:01:57.605Z,100503.50
2023-03-06T10:04:38.627Z,100510.44
2023-03-06T10:07:13.214Z,100507.97
2023-03-06T10:09:45.426Z,100514.41
2023-03-06T10:12:24.514Z,100510.28
2023-03-06T10:15:02.043Z,100509.00
2023-03-06T10:17:36.363Z,100502.22
2023-03-06T10:20:15.487Z,100510.47
2023-03-06T10:22:52.567Z,100509.16
2023-03-06T10:25:31.481Z,100505.53
2023-03-06T10:28:09.185Z,100503.53
2023-03-06T10:30:46.839Z,100503.06
2023-03-06T10:33:22.434Z,100501.72
2023-03-06T10:35:50.827Z,100511.81
2023-03-06T10:38:21.134Z,100508.81
2023-03-06T10:40:58.592Z,100509.34
2023-03-06T10:43:25.432Z,100505.34
2023-03-06T10:45:53.963Z,100509.16
2023-03-06T10:48:23.218Z,100506.84
2023-03-06T10:50:50.412Z,100506.19
2023-03-06T10:53:25.578Z,100503.84
2023-03-06T10:55:54.987Z,100503.53
2023-03-06T10:58:26.097Z,100504.00
2023-03-06T11:01:19.459Z,100512.06
2023-03-06T11:03:50.891Z,100508.13
2023-03-06T11:06:34.912Z,100517.84
2023-03-06T11:09:14.418Z,100512.88
2023-03-06T11:11:44.852Z,100511.53
2023-03-06T11:14:17.625Z,100499.97
2023-03-06T11:16:56.181Z,100502.13
2023-03-06T11:19:27.336Z,100490.88
2023-03-06T11:22:19.169Z,100499.94
2023-03-06T11:24:50.713Z,100492.31
2023-03-06T11:27:28.075Z,100494.25
2023-03-06T11:29:58.818Z,100485.84
2023-03-06T11:32:30.653Z,100484.84
2023-03-06T11:35:03.910Z,100485.13
2023-03-06T11:37:43.614Z,100485.44
2023-03-06T11:40:20.040Z,100478.47
2023-03-06T11:42:53.940Z,100469.19
2023-03-06T11:45:26.608Z,100470.31
2023-03-06T11:48:12.109Z,100475.25
2023-03-06T11:50:42.745Z,100469.63
2023-03-06T11:53:12.282Z,100471.09
2023-03-06T11:55:53.649Z,100465.59
2023-03-06T11:58:52.390Z,100462.97
2023-03-06T12:01:26.711Z,100457.50
2023-03-06T12:04:25.179Z,100458.97
2023-03-06T12:07:01.916Z,100447.22
2023-03-06T12:09:40.698Z,100448.53
2023-03-06T12:12:27.334Z,100452.44
2023-03-06T12:15:10.355Z,100446.81
2023-03-06T12:17:54.096Z,100442.63
2023-03-06T12:20:39.076Z,100436.78
2023-03-06T12:23:19.759Z,100438.75
2023-03-06T12:25:52.175Z,100434.75
2023-03-06T12:28:40.727Z,100441.97
2023-03-06T12:31:32.760Z,100440.41
2023-03-06T12:34:17.543Z,100435.94
2023-03-06T12:37:00.018Z,100433.97
2023-03-06T12:39:42.565Z,100433.63
2023-03-06T12:42:23.981Z,100422.66
2023-03-06T12:45:29.644Z,100429.28
2023-03-06T12:47:59.339Z,100425.41
2023-03-06T12:50:32.577Z,100418.13
2023-03-06T12:53:04.525Z,100419.78
2023-03-06T12:55:39.651Z,100417.78
2023-03-06T12:58:49.319Z,100413.94
2023-03-06T13:01:48.324Z,100407.63
2023-03-06T13:04:35.599Z,100394.03
2023-03-06T13:07:32.398Z,100399.13
2023-03-06T13:10:07.907Z,100397.94
2023-03-06T13:12:57.406Z,100392.66
2023-03-06T13:15:42.896Z,100381.06
2023-03-06T13:18:46.156Z,100374.38
2023-03-06T13:21:46.291Z,100378.50
2023-03-06T13:24:19.724Z,100369.56
2023-03-06T13:27:01.265Z,100369.38
2023-03-06T13:30:30.991Z,100361.88
2023-03-06T13:32:58.395Z,100368.47
2023-03-06T13:35:54.769Z,100362.94
2023-03-06T13:39:03.565Z,100358.13
2023-03-06T13:41:41.775Z,100351.25
2023-03-06T13:44:47.453Z,100349.25
2023-03-06T13:48:09.758Z,100358.03
2023-03-06T13:50:38.042Z,100352.72
2023-03-06T13:53:36.710Z,100342.13
2023-03-06T13:56:18.160Z,100345.22
2023-03-06T13:59:00.211Z,100344.38
2023-03-06T14:01:42.013Z,100338.25
2023-03-06T14:04:34.552Z,100339.09
2023-03-06T14:07:11.595Z,100334.59
2023-03-06T14:09:44.885Z,100325.00
2023-03-06T14:12:20.649Z,100322.34
2023-03-06T14:14:52.982Z,100324.00
2023-03-06T14:17:26.726Z,100325.47
2023-03-06T14:19:58.177Z,100315.69
2023-03-06T14:22:25.083Z,100315.06
2023-03-06T14:24:56.487Z,100314.41
2023-03-06T14:27:48.101Z,100310.75
2023-03-06T14:30:20.188Z,100303.63
2023-03-06T14:32:48.556Z,100303.63
2023-03-06T14:35:26.831Z,100304.44
2023-03-06T14:37:56.908Z,100304.44
2023-03-06T14:40:31.759Z,100300.34
2023-03-06T14:43:22.006Z,100297.69
2023-03-06T14:45:56.369Z,100287.09
2023-03-06T14:48:26.860Z,100288.91
2023-03-06T14:50:56.275Z,100293.41
2023-03-06T14:53:28.793Z,100287.66
2023-03-06T14:56:00.392Z,100294.34
2023-03-06T14:58:32.570Z,100292.41
2023-03-06T15:01:04.002Z,100293.72
2023-03-06T15:03:42.354Z,100292.00
2023-03-06T15:06:15.534Z,100286.72
2023-03-06T15:08:48.095Z,100287.09
2023-03-06T15:11:15.182Z,100286.81
2023-03-06T15:13:44.421Z,100280.06
2023-03-06T15:16:29.628Z,100277.75
2023-03-06T15:19:00.291Z,100272.44
2023-03-06T15:21:38.335Z,100264.84
2023-03-06T15:24:30.654Z,100267.06
2023-03-06T15:27:01.488Z,100261.50
2023-03-06T15:29:28.414Z,100255.72
2023-03-06T15:32:15.049Z,100256.13
2023-03-06T15:34:42.364Z,100250.00
2023-03-06T15:37:28.691Z,100244.88
2023-03-06T15:40:11.337Z,100237.28
2023-03-06T15:42:38.149Z,100239.50
2023-03-06T15:45:15.874Z,100234.56
2023-03-06T15:47:43.305Z,100230.25
2023-03-06T15:50:19.075Z,100227.00
2023-03-06T15:52:49.283Z,100224.88
2023-03-06T15:55:17.865Z,100220.78
2023-03-06T15:57:49.925Z,100218.50
2023-03-06T16:00:27.595Z,100223.34
2023-03-06T16:02:57.196Z,100223.03
2023-03-06T16:05:26.012Z,100209.06
2023-03-06T16:07:55.170Z,100225.03
2023-03-06T16:10:23.608Z,100219.19
2023-03-06T16:12:54.103Z,100227.00
2023-03-06T16:15:23.982Z,100216.16
2023-03-06T16:17:50.755Z,100209.72
2023-03-06T16:20:20.134Z,100212.09
2023-03-06T16:22:48.014Z,100207.19
2023-03-06T16:25:17.558Z,100204.34
2023-03-06T16:27:49.743Z,100196.78
2023-03-06T16:30:19.055Z,100188.38
2023-03-06T16:32:49.050Z,100191.38
2023-03-06T16:35:16.024Z,100196.03
2023-03-06T16:37:43.087Z,100185.78
2023-03-06T16:40:20.174Z,100188.81
2023-03-06T16:42:47.247Z,100183.69
2023-03-06T16:45:14.838Z,100177.41
2023-03-06T16:47:42.580Z,100179.22
2023-03-06T16:50:22.090Z,100177.59
2023-03-06T16:52:51.702Z,100174.28
2023-03-06T16:55:21.037Z,100176.13
2023-03-06T16:57:48.216Z,100176.13
2023-03-06T17:00:16.855Z,100170.84
2023-03-06T17:02:43.885Z,100175.50
2023-03-06T17:05:13.594Z,100172.19
2023-03-06T17:07:40.994Z,100176.00
2023-03-06T17:10:10.465Z,100174.72
2023-03-06T17:12:38.605Z,100177.25
2023-03-06T17:15:07.746Z,100171.69
2023-03-06T17:17:35.186Z,100166.56
2023-03-06T17:20:02.209Z,100171.19
2023-03-06T17:22:29.035Z,100170.91
2023-03-06T17:24:56.142Z,100167.78
2023-03-06T17:27:23.305Z,100158.75
2023-03-06T17:29:51.840Z,100160.94
2023-03-06T17:32:18.920Z,100152.34
2023-03-06T17:34:46.975Z,100153.34
2023-03-06T17:37:14.014Z,100147.94
2023-03-06T17:39:41.661Z,100155.41
2023-03-06T17:42:09.037Z,100153.09
2023-03-06T17:44:36.485Z,100147.19
2023-03-06T17:47:12.986Z,100146.34
2023-03-06T17:49:41.218Z,100148.38
2023-03-06T17:52:08.320Z,100140.44
2023-03-06T17:54:40.777Z,100141.44
2023-03-06T17:57:08.050Z,100143.59
2023-03-06T17:59:35.141Z,100146.59
2023-03-06T18:02:02.809Z,100142.31
2023-03-06T18:04:32.310Z,100139.16
2023-03-06T18:06:59.297Z,100140.53
2023-03-06T18:09:27.646Z,100139.22
2023-03-06T18:11:55.895Z,100134.13
2023-03-06T18:14:22.979Z,100129.03
2023-03-06T18:16:50.330Z,100128.38
2023-03-06T18:19:17.859Z,100118.19
2023-03-06T18:21:49.657Z,100127.06
2023-03-06T18:24:18.119Z,100120.50
2023-03-06T18:26:45.864Z,100117.84
2023-03-06T18:29:13.670Z,100114.75
2023-03-06T18:31:42.289Z,100110.47
2023-03-06T18:34:16.247Z,100104.53
2023-03-06T18:36:44.016Z,100108.00
2023-03-06T18:39:14.673Z,100105.34
2023-03-06T18:41:42.454Z,100094.81
2023-03-06T18:44:15.230Z,100093.97
2023-03-06T18:46:43.766Z,100087.88
2023-03-06T18:49:11.811Z,100085.44
2023-03-06T18:51:41.184Z,100082.81
2023-03-06T18:54:08.362Z,100075.06
2023-03-06T18:56:36.711Z,100067.13
2023-03-06T18:59:05.120Z,100066.47
2023-03-06T19:01:38.269Z,100062.19
2023-03-06T19:04:05.900Z,100058.91
2023-03-06T19:06:33.275Z,100059.09
2023-03-06T19:09:02.802Z,100049.53
2023-03-06T19:11:40.915Z,100048.03
2023-03-06T19:14:10.188Z,100040.94
2023-03-06T19:16:37.594Z,100045.56
2023-03-06T19:19:04.567Z,100036.81
2023-03-06T19:21:31.913Z,100036.03
2023-03-06T19:24:01.682Z,100025.66
2023-03-06T19:26:31.683Z,100026.81
2023-03-06T19:28:59.071Z,100019.06
2023-03-06T19:31:29.344Z,100021.69
2023-03-06T19:33:57.951Z,100023.72
2023-03-06T19:36:28.829Z,100016.44
2023-03-06T19:38:58.986Z,100017.25
2023-03-06T19:41:27.363Z,100011.34
2023-03-06T19:43:58.694Z,100005.25
2023-03-06T19:46:30.043Z,100002.78
2023-03-06T19:49:01.269Z,99998.50
2023-03-06T19:51:30.218Z,99991.41
2023-03-06T19:53:58.340Z,99978.22
2023-03-06T19:56:26.870Z,99982.84
2023-03-06T19:58:54.441Z,99988.28
2023-03-06T20:01:23.579Z,99981.72
2023-03-06T20:03:58.685Z,99975.81
2023-03-06T20:06:30.497Z,99962.97
2023-03-06T20:08:57.820Z,99962.97
2023-03-06T20:11:30.170Z,99955.25
2023-03-06T20:13:58.312Z,99956.41
2023-03-06T20:16:27.919Z,99951.28
2023-03-06T20:18:59.395Z,99942.59
2023-03-06T20:21:28.124Z,99939.13
2023-03-06T20:23:57.981Z,99943.38
2023-03-06T20:26:29.311Z,99939.75
2023-03-06T20:28:56.635Z,99936.31
2023-03-06T20:31:26.321Z,99931.22
2023-03-06T20:33:54.994Z,99930.41
2023-03-06T20:36:25.135Z,99921.69
2023-03-06T20:38:52.002Z,99917.22
2023-03-06T20:41:20.928Z,99909.50
2023-03-06T20:43:50.128Z,99909.50
2023-03-06T20:46:18.469Z,99906.03
2023-03-06T20:48:49.124Z,99902.75
2023-03-06T20:51:18.731Z,99904.56
2023-03-06T20:53:50.920Z,99890.09
2023-03-06T20:56:25.506Z,99897.00
2023-03-06T20:58:55.626Z,99889.28
2023-03-06T21:01:26.909Z,99892.06
2023-03-06T21:03:56.846Z,99883.34
2023-03-06T21:06:27.073Z,99883.72
2023-03-06T21:08:58.390Z,99875.97
2023-03-06T21:11:26.009Z,99872.34
2023-03-06T21:13:56.576Z,99865.28
2023-03-06T21:16:25.756Z,99864.28
2023-03-06T21:19:04.099Z,99865.88
2023-03-06T21:21:54.811Z,99858.81
2023-03-06T21:24:23.325Z,99850.09
2023-03-06T21:26:52.143Z,99849.09
2023-03-06T21:29:20.345Z,99845.47
2023-03-06T21:31:49.984Z,99842.66
2023-03-06T21:34:17.606Z,99831.13
2023-03-06T21:36:52.494Z,99826.03
2023-03-06T21:39:20.229Z,99821.41
2023-03-06T21:41:48.524Z,99824.88
2023-03-06T21:44:17.798Z,99812.31
2023-03-06T21:46:45.795Z,99812.13
2023-03-06T21:49:13.066Z,99805.88
2023-03-06T21:51:43.342Z,99801.25
2023-03-06T21:54:10.666Z,99797.63
2023-03-06T21:56:41.727Z,99798.63
2023-03-06T21:59:17.681Z,99796.81
2023-03-06T22:01:45.108Z,99795.78
2023-03-06T22:04:12.249Z,99781.44
2023-03-06T22:06:41.422Z,99777.16
2023-03-06T22:09:16.606Z,99773.53
2023-03-06T22:11:44.417Z,99767.91
2023-03-06T22:14:15.026Z,99773.81
2023-03-06T22:16:42.308Z,99762.09
2023-03-06T22:19:12.639Z,99768.03
2023-03-06T22:21:40.899Z,99761.09
2023-03-06T22:24:11.067Z,99751.38
2023-03-06T22:26:38.935Z,99748.56
2023-03-06T22:29:06.408Z,99747.75
2023-03-06T22:31:40.286Z,99750.19
2023-03-06T22:34:08.933Z,99749.19
2023-03-06T22:36:36.352Z,99751.66
2023-03-06T22:39:07.505Z,99749.84
2023-03-06T22:41:34.727Z,99752.13
2023-03-06T22:44:03.824Z,99744.84
2023-03-06T22:46:32.240Z,99743.66
2023-03-06T22:49:11.534Z,99746.31
2023-03-06T22:51:40.846Z,99734.13
2023-03-06T22:54:09.269Z,99740.03
2023-03-06T22:56:37.018Z,99737.22
2023-03-06T22:59:04.832Z,99732.56
2023-03-06T23:01:38.158Z,99742.94
2023-03-06T23:04:11.868Z,99740.31
2023-03-06T23:06:45.694Z,99752.34
2023-03-06T23:09:18.474Z,99740.81
2023-03-06T23:11:45.449Z,99747.53
2023-03-06T23:14:12.872Z,99739.59
2023-03-06T23:16:40.803Z,99744.06
2023-03-06T23:19:09.600Z,99726.44
2023-03-06T23:21:37.509Z,99725.44
2023-03-06T23:24:05.708Z,99718.97
2023-03-06T23:26:36.698Z,99719.81
2023-03-06T23:29:04.866Z,99731.19
2023-03-06T23:31:35.859Z,99719.81
2023-03-06T23:34:06.306Z,99732.00
2023-03-06T23:36:34.750Z,99726.72
2023-03-06T23:39:02.204Z,99718.00
2023-03-06T23:41:29.105Z,99725.06
2023-03-06T23:43:58.926Z,99721.63
2023-03-06T23:46:26.094Z,99720.63
2023-03-06T23:48:53.084Z,99716.97
2023-03-06T23:51:22.140Z,99716.16
2023-03-06T23:53:55.249Z,99717.78
2023-03-06T23:56:23.935Z,99717.16
2023-03-06T23:58:51.816Z,99719.59
